Time;durP1;ratioP1;P1;durP2;ratioP2;P2;SDS_P1;SDS_P2;PMS_P1;PMS_P2;Temp;Humidity;BMP_temperature;BMP_pressure;BME280_temperature;BME280_humidity;BME280_pressure;Samples;Min_cycle;Max_cycle;Signal;HPM_P1;HPM_P2
2021/01/12 00:00:27;;;;;;;13.80;11.47;;;0.70;66.80;;;;;;5023821;28;20174;-91
2021/01/12 00:02:55;;;;;;;14.93;11.43;;;0.70;67.40;;;;;;5005927;28;20253;-92
2021/01/12 00:05:21;;;;;;;15.60;12.67;;;0.70;66.50;;;;;;5023881;28;20193;-90
2021/01/12 00:07:47;;;;;;;16.00;12.27;;;0.70;66.50;;;;;;5025802;28;20278;-91
2021/01/12 00:10:13;;;;;;;17.37;12.60;;;0.70;66.80;;;;;;5024050;28;20188;-91
2021/01/12 00:12:39;;;;;;;17.03;12.90;;;0.60;67.00;;;;;;5005715;28;20241;-91
2021/01/12 00:15:06;;;;;;;17.40;12.87;;;0.70;66.80;;;;;;5006774;28;20185;-91
2021/01/12 00:17:32;;;;;;;15.53;11.40;;;0.70;66.70;;;;;;5005273;28;20190;-91
2021/01/12 00:19:57;;;;;;;17.80;11.97;;;0.70;67.30;;;;;;5023744;28;20645;-92
2021/01/12 00:22:23;;;;;;;16.30;11.97;;;0.80;66.50;;;;;;5023386;28;20209;-92
2021/01/12 00:24:50;;;;;;;16.73;12.17;;;0.80;66.60;;;;;;5006089;28;20186;-92
2021/01/12 00:27:19;;;;;;;15.00;11.20;;;0.80;67.00;;;;;;5022342;28;20629;-90
2021/01/12 00:29:45;;;;;;;15.30;11.27;;;0.80;67.20;;;;;;4989390;28;20224;-91
2021/01/12 00:32:21;;;;;;;16.00;11.93;;;0.80;67.10;;;;;;5024036;28;20221;-91
2021/01/12 00:34:48;;;;;;;17.37;12.57;;;0.80;67.80;;;;;;5023677;28;20572;-90
2021/01/12 00:37:20;;;;;;;13.23;11.07;;;0.80;67.80;;;;;;5029950;28;20169;-90
2021/01/12 00:39:47;;;;;;;15.00;11.87;;;0.90;68.10;;;;;;5023685;28;20201;-91
2021/01/12 00:42:12;;;;;;;17.97;12.10;;;0.90;68.60;;;;;;5023850;28;20197;-91
2021/01/12 00:44:38;;;;;;;16.33;12.17;;;0.90;68.40;;;;;;5022522;28;20189;-90
2021/01/12 00:47:06;;;;;;;15.57;12.03;;;0.80;68.70;;;;;;5023155;28;20186;-91
2021/01/12 00:49:32;;;;;;;15.53;11.33;;;0.80;68.70;;;;;;5006087;28;20596;-92
2021/01/12 00:51:58;;;;;;;17.70;12.37;;;0.80;68.90;;;;;;5023068;28;20181;-92
2021/01/12 00:54:25;;;;;;;16.03;11.60;;;0.80;68.90;;;;;;5022847;28;20193;-90
2021/01/12 00:56:51;;;;;;;16.10;11.63;;;0.80;68.80;;;;;;5021576;28;20201;-90
2021/01/12 00:59:17;;;;;;;14.70;9.77;;;0.90;68.60;;;;;;5021151;28;20215;-91
2021/01/12 01:01:43;;;;;;;15.73;10.97;;;0.80;68.90;;;;;;5021399;28;20205;-90
2021/01/12 01:04:13;;;;;;;15.73;12.70;;;0.80;69.30;;;;;;5020864;28;20193;-90
2021/01/12 01:06:40;;;;;;;13.93;11.77;;;0.90;69.50;;;;;;5020794;28;20183;-91
2021/01/12 01:09:05;;;;;;;14.33;11.07;;;0.80;69.80;;;;;;5020552;28;20446;-91
2021/01/12 01:11:31;;;;;;;15.03;10.97;;;0.90;68.90;;;;;;5020711;28;20192;-91
2021/01/12 01:13:57;;;;;;;14.43;10.90;;;1.00;68.70;;;;;;5020224;28;20220;-91
2021/01/12 01:16:31;;;;;;;14.97;11.53;;;0.90;69.60;;;;;;5020777;28;20189;-91
2021/01/12 01:18:56;;;;;;;16.43;12.00;;;1.00;69.70;;;;;;5021063;28;20201;-90
2021/01/12 01:21:22;;;;;;;17.13;12.77;;;1.00;69.90;;;;;;5020430;28;20189;-89
2021/01/12 01:23:48;;;;;;;14.57;11.40;;;1.00;69.80;;;;;;5020937;28;20177;-91
2021/01/12 01:26:18;;;;;;;15.20;11.23;;;1.00;70.30;;;;;;5021691;28;20189;-91
2021/01/12 01:28:44;;;;;;;13.47;11.00;;;1.00;70.60;;;;;;5007257;28;20206;-91
2021/01/12 01:31:10;;;;;;;13.50;10.40;;;1.00;70.30;;;;;;5024848;28;20251;-90
2021/01/12 01:33:35;;;;;;;14.87;11.73;;;1.00;70.20;;;;;;5024719;28;20220;-90
2021/01/12 01:36:01;;;;;;;15.87;11.13;;;0.90;70.80;;;;;;5024600;28;20177;-91
2021/01/12 01:38:26;;;;;;;16.43;11.47;;;0.90;70.80;;;;;;5024348;28;20249;-90
2021/01/12 01:40:57;;;;;;;15.73;11.37;;;1.00;70.70;;;;;;5024715;28;20178;-91
2021/01/12 01:43:23;;;;;;;17.20;11.60;;;0.90;70.80;;;;;;5024950;28;20186;-91
2021/01/12 01:45:50;;;;;;;14.77;11.10;;;0.90;70.40;;;;;;5007632;28;20192;-91
2021/01/12 01:48:15;;;;;;;16.13;11.80;;;0.90;70.40;;;;;;5024465;28;20212;-90
2021/01/12 01:50:41;;;;;;;17.00;12.43;;;0.80;71.10;;;;;;5007139;28;20178;-92
2021/01/12 01:53:10;;;;;;;15.57;11.40;;;0.90;70.90;;;;;;5024804;28;20205;-90
2021/01/12 01:55:40;;;;;;;15.33;11.67;;;0.90;70.60;;;;;;5024146;28;20173;-89
2021/01/12 01:58:06;;;;;;;14.30;11.53;;;1.00;70.30;;;;;;5006236;28;20201;-90
2021/01/12 02:00:36;;;;;;;13.07;9.57;;;0.90;70.30;;;;;;5024859;28;20177;-91
2021/01/12 02:03:19;;;;;;;14.50;10.80;;;0.90;70.30;;;;;;5024314;28;20628;-91
2021/01/12 02:06:00;;;;;;;16.07;11.20;;;0.90;71.00;;;;;;5024287;28;20188;-90
2021/01/12 02:08:36;;;;;;;14.03;11.47;;;0.90;71.40;;;;;;5024682;28;20213;-91
2021/01/12 02:11:02;;;;;;;14.23;11.07;;;0.90;71.60;;;;;;5024716;28;20173;-90
2021/01/12 02:13:30;;;;;;;13.97;10.37;;;0.90;71.60;;;;;;5024727;28;20205;-91
2021/01/12 02:15:59;;;;;;;13.57;10.87;;;1.00;71.00;;;;;;5025016;28;20177;-91
2021/01/12 02:18:33;;;;;;;16.80;11.07;;;0.90;71.30;;;;;;5024999;28;20509;-90
2021/01/12 02:21:03;;;;;;;15.10;11.73;;;0.90;71.40;;;;;;5006749;28;20181;-90
2021/01/12 02:23:34;;;;;;;14.60;11.90;;;0.80;71.10;;;;;;5024680;28;20185;-91
2021/01/12 02:26:01;;;;;;;15.63;12.00;;;0.90;71.20;;;;;;5039363;28;20154;-90
2021/01/12 02:28:27;;;;;;;14.40;10.67;;;0.80;71.00;;;;;;5030465;28;20703;-90
2021/01/12 02:30:53;;;;;;;13.60;10.40;;;0.90;71.00;;;;;;5004397;28;20189;-90
2021/01/12 02:33:18;;;;;;;13.87;10.07;;;0.90;70.90;;;;;;5026327;28;20295;-89
2021/01/12 02:35:48;;;;;;;16.40;11.50;;;0.90;70.80;;;;;;5030991;28;20205;-88
2021/01/12 02:38:14;;;;;;;14.40;11.63;;;0.80;71.60;;;;;;5013407;28;20213;-89
2021/01/12 02:40:40;;;;;;;14.17;10.20;;;0.80;71.50;;;;;;5020930;28;20174;-90
2021/01/12 02:43:06;;;;;;;15.43;10.30;;;0.80;71.10;;;;;;5022236;28;20283;-90
2021/01/12 02:45:32;;;;;;;14.30;10.83;;;0.80;71.50;;;;;;5022154;28;20182;-89
2021/01/12 02:48:00;;;;;;;14.70;10.23;;;0.80;71.80;;;;;;5021803;28;20225;-90
2021/01/12 02:50:26;;;;;;;15.30;11.40;;;0.80;71.50;;;;;;5021949;28;20178;-90
2021/01/12 02:52:52;;;;;;;13.07;9.37;;;0.80;72.20;;;;;;5020061;28;20268;-90
2021/01/12 02:55:17;;;;;;;13.80;10.17;;;0.80;72.20;;;;;;5021932;28;20584;-90
2021/01/12 02:57:43;;;;;;;15.83;12.60;;;0.90;71.40;;;;;;5021808;28;20190;-90
2021/01/12 03:00:11;;;;;;;14.77;11.23;;;0.80;71.80;;;;;;5021747;28;20185;-89
2021/01/12 03:02:37;;;;;;;17.73;11.33;;;0.80;72.30;;;;;;5020625;28;20186;-90
2021/01/12 03:05:04;;;;;;;16.50;10.60;;;0.80;72.20;;;;;;5020607;28;20268;-89
2021/01/12 03:07:30;;;;;;;12.60;10.80;;;0.80;72.00;;;;;;5021683;28;20190;-89
2021/01/12 03:09:56;;;;;;;16.37;12.07;;;0.90;71.90;;;;;;5021604;28;20188;-90
2021/01/12 03:12:22;;;;;;;15.20;10.17;;;0.90;72.10;;;;;;5021056;28;20214;-90
2021/01/12 03:14:48;;;;;;;14.00;10.13;;;0.90;71.80;;;;;;5020893;28;20185;-90
2021/01/12 03:17:14;;;;;;;14.93;10.70;;;0.90;71.80;;;;;;5021364;28;20665;-89
2021/01/12 03:19:41;;;;;;;16.00;11.80;;;0.90;71.90;;;;;;5020943;28;20198;-90
2021/01/12 03:22:07;;;;;;;13.87;11.30;;;0.90;72.10;;;;;;5021045;28;20209;-89
2021/01/12 03:24:32;;;;;;;12.60;9.53;;;1.00;71.50;;;;;;5019756;28;20595;-89
2021/01/12 03:26:58;;;;;;;13.77;10.30;;;0.90;71.70;;;;;;5021373;28;20179;-89
2021/01/12 03:29:24;;;;;;;14.40;11.00;;;1.00;71.90;;;;;;5020834;28;20259;-90
2021/01/12 03:31:49;;;;;;;11.87;9.63;;;0.90;71.50;;;;;;5020807;28;20220;-90
2021/01/12 03:34:15;;;;;;;13.73;10.07;;;1.00;72.10;;;;;;5003730;28;20221;-90
2021/01/12 03:36:41;;;;;;;15.63;10.07;;;0.90;72.00;;;;;;5003253;28;20178;-89
2021/01/12 03:39:07;;;;;;;13.43;9.47;;;0.90;72.00;;;;;;5020574;28;20218;-90
2021/01/12 03:41:32;;;;;;;15.27;10.43;;;0.90;72.10;;;;;;5020814;28;20291;-90
2021/01/12 03:43:59;;;;;;;14.00;10.00;;;0.90;73.10;;;;;;5002702;28;20652;-89
2021/01/12 03:46:25;;;;;;;11.83;9.33;;;0.90;72.20;;;;;;5005971;28;20186;-89
2021/01/12 03:48:51;;;;;;;14.00;10.23;;;1.00;72.30;;;;;;5020630;28;20201;-89
2021/01/12 03:51:17;;;;;;;13.67;9.17;;;1.00;72.10;;;;;;5020821;28;20189;-91
2021/01/12 03:53:43;;;;;;;12.13;9.57;;;1.00;71.70;;;;;;5020152;28;20205;-90
2021/01/12 03:56:08;;;;;;;13.60;10.07;;;1.00;72.00;;;;;;5020798;28;20190;-90
2021/01/12 03:58:36;;;;;;;11.73;8.90;;;1.00;71.90;;;;;;5020543;28;20201;-89
2021/01/12 04:01:03;;;;;;;14.67;10.10;;;1.10;71.70;;;;;;5020085;28;20268;-89
2021/01/12 04:03:28;;;;;;;11.87;9.20;;;1.10;72.40;;;;;;5020063;28;20245;-89
2021/01/12 04:05:54;;;;;;;12.77;8.97;;;1.10;72.60;;;;;;5002996;28;20220;-89
2021/01/12 04:08:20;;;;;;;12.33;8.53;;;1.10;72.50;;;;;;5020450;28;20209;-89
2021/01/12 04:10:46;;;;;;;12.23;9.07;;;1.20;72.40;;;;;;4989303;28;20662;-89
2021/01/12 04:13:11;;;;;;;14.13;9.20;;;1.10;72.80;;;;;;5000542;28;20217;-89
2021/01/12 04:15:37;;;;;;;13.07;9.70;;;1.10;73.50;;;;;;5000498;28;20715;-89
2021/01/12 04:18:03;;;;;;;13.33;9.03;;;1.10;73.70;;;;;;4987775;28;20205;-90
2021/01/12 04:20:28;;;;;;;13.60;10.10;;;1.10;74.10;;;;;;5003052;28;20205;-91
2021/01/12 04:22:54;;;;;;;11.93;8.40;;;1.10;74.60;;;;;;5021941;28;20657;-90
2021/01/12 04:25:20;;;;;;;13.97;9.33;;;1.10;74.60;;;;;;5020826;28;20189;-89
2021/01/12 04:27:46;;;;;;;10.77;9.10;;;1.00;75.30;;;;;;5020260;28;21897;-89
2021/01/12 04:30:12;;;;;;;10.73;7.77;;;1.10;76.70;;;;;;5019446;28;20255;-89
2021/01/12 04:32:38;;;;;;;10.57;8.93;;;1.00;77.10;;;;;;5019888;28;20205;-89
2021/01/12 04:35:04;;;;;;;14.77;10.10;;;1.00;78.00;;;;;;5019615;28;20277;-89
2021/01/12 04:37:30;;;;;;;11.27;8.67;;;0.90;79.60;;;;;;5019529;28;20216;-89
2021/01/12 04:39:55;;;;;;;11.27;7.93;;;0.80;80.10;;;;;;5002138;28;20166;-90
2021/01/12 04:42:21;;;;;;;11.33;8.67;;;1.00;80.10;;;;;;5019964;28;20186;-90
2021/01/12 04:44:47;;;;;;;13.37;8.23;;;0.90;81.00;;;;;;5019687;28;20182;-90
2021/01/12 04:47:12;;;;;;;12.27;8.33;;;0.90;81.50;;;;;;5019767;28;20190;-90
2021/01/12 04:49:38;;;;;;;11.03;8.13;;;0.80;82.60;;;;;;5020776;28;20209;-91
2021/01/12 04:52:04;;;;;;;12.67;9.13;;;0.80;82.20;;;;;;4985411;28;20214;-89
2021/01/12 04:54:36;;;;;;;13.97;10.10;;;0.90;82.50;;;;;;5019033;28;20198;-89
2021/01/12 04:57:02;;;;;;;11.70;8.90;;;0.80;82.70;;;;;;5019284;28;20240;-89
2021/01/12 04:59:32;;;;;;;11.57;9.33;;;0.80;83.40;;;;;;5001920;28;20201;-91
2021/01/12 05:01:58;;;;;;;12.67;9.17;;;0.90;82.80;;;;;;5018690;28;20182;-89
2021/01/12 05:04:23;;;;;;;13.50;9.73;;;0.80;83.30;;;;;;5018835;28;20216;-89
2021/01/12 05:06:49;;;;;;;13.30;9.60;;;0.80;83.50;;;;;;5019576;28;20181;-89
2021/01/12 05:09:27;;;;;;;13.43;10.47;;;0.70;83.80;;;;;;5019949;28;20212;-89
2021/01/12 05:11:56;;;;;;;13.30;7.97;;;0.80;84.30;;;;;;5006839;28;20197;-90
2021/01/12 05:14:24;;;;;;;12.43;10.40;;;0.80;84.20;;;;;;5004541;28;20683;-89
2021/01/12 05:16:55;;;;;;;13.17;9.40;;;0.80;85.50;;;;;;5003828;28;20261;-90
2021/01/12 05:19:22;;;;;;;11.87;9.00;;;0.80;86.40;;;;;;5023017;28;20205;-89
2021/01/12 05:21:50;;;;;;;10.57;8.33;;;0.70;87.40;;;;;;5025940;28;20182;-89
2021/01/12 05:24:20;;;;;;;13.87;9.80;;;0.70;87.80;;;;;;4990138;28;20227;-90
2021/01/12 05:26:47;;;;;;;11.77;7.43;;;0.70;89.30;;;;;;5022313;28;20188;-90
2021/01/12 05:29:13;;;;;;;12.10;8.60;;;0.70;88.90;;;;;;5004594;28;20295;-90
2021/01/12 05:31:42;;;;;;;12.60;8.63;;;0.70;90.90;;;;;;5022342;28;20181;-90
2021/01/12 05:34:10;;;;;;;13.20;10.63;;;0.70;90.50;;;;;;5004578;28;20213;-89
2021/01/12 05:36:51;;;;;;;12.27;9.57;;;0.70;91.90;;;;;;5004698;28;20253;-89
2021/01/12 05:39:19;;;;;;;13.47;10.00;;;0.60;92.00;;;;;;5021844;28;20327;-89
2021/01/12 05:41:46;;;;;;;11.00;8.83;;;0.60;93.00;;;;;;5022238;28;20178;-89
2021/01/12 05:44:19;;;;;;;11.30;8.03;;;0.70;92.20;;;;;;5022067;28;20205;-90
2021/01/12 05:46:47;;;;;;;12.90;9.27;;;0.70;91.80;;;;;;5004246;28;20723;-90
2021/01/12 05:49:13;;;;;;;12.63;9.83;;;0.60;92.90;;;;;;5022169;28;20205;-89
2021/01/12 05:51:46;;;;;;;13.00;9.63;;;0.70;93.40;;;;;;5022131;28;20185;-89
2021/01/12 05:54:31;;;;;;;11.50;8.80;;;0.60;93.80;;;;;;5015836;28;20206;-89
2021/01/12 05:56:58;;;;;;;9.43;7.23;;;0.70;93.70;;;;;;4997676;28;20672;-89
2021/01/12 05:59:29;;;;;;;11.77;8.70;;;0.80;92.60;;;;;;5015730;28;20197;-89
2021/01/12 06:01:56;;;;;;;12.97;9.47;;;0.80;92.60;;;;;;5014022;28;20610;-89
2021/01/12 06:04:23;;;;;;;13.37;8.53;;;0.70;93.10;;;;;;5013727;28;20190;-89
2021/01/12 06:06:51;;;;;;;12.47;8.23;;;0.80;93.00;;;;;;5013955;28;20181;-89
2021/01/12 06:09:18;;;;;;;10.57;8.23;;;0.90;92.80;;;;;;5012684;28;20205;-89
2021/01/12 06:11:52;;;;;;;10.77;7.40;;;0.90;93.10;;;;;;4998673;28;20220;-89
2021/01/12 06:14:29;;;;;;;12.80;8.83;;;0.90;93.10;;;;;;5017843;28;20200;-89
2021/01/12 06:16:56;;;;;;;10.63;8.33;;;0.90;93.80;;;;;;5018353;28;20192;-89
2021/01/12 06:19:30;;;;;;;10.93;8.40;;;0.90;94.70;;;;;;5018951;28;20233;-88
2021/01/12 06:21:56;;;;;;;11.50;8.00;;;0.80;94.80;;;;;;5005403;28;20645;-88
2021/01/12 06:24:37;;;;;;;9.67;8.20;;;0.80;95.40;;;;;;5025732;28;20200;-89
2021/01/12 06:27:14;;;;;;;11.67;8.37;;;0.80;95.40;;;;;;5026069;28;20166;-88
2021/01/12 06:29:47;;;;;;;11.63;8.20;;;0.80;96.80;;;;;;5025784;28;20194;-89
2021/01/12 06:32:21;;;;;;;11.17;8.57;;;0.80;97.10;;;;;;5025471;28;20169;-88
2021/01/12 06:34:53;;;;;;;10.70;8.07;;;0.80;97.70;;;;;;5026182;28;20181;-89
2021/01/12 06:37:20;;;;;;;12.10;9.27;;;0.80;98.40;;;;;;5026136;28;20181;-88
2021/01/12 06:39:56;;;;;;;11.17;8.47;;;0.80;98.30;;;;;;5025465;28;20257;-89
2021/01/12 06:42:25;;;;;;;12.83;9.50;;;0.80;99.10;;;;;;5025848;28;20173;-89
2021/01/12 06:44:52;;;;;;;10.03;8.60;;;0.70;99.70;;;;;;5025020;28;20210;-89
2021/01/12 06:47:27;;;;;;;12.97;9.23;;;0.80;99.70;;;;;;5007208;28;20177;-89
2021/01/12 06:50:12;;;;;;;12.77;8.93;;;0.70;99.90;;;;;;5007534;28;20193;-89
2021/01/12 06:52:49;;;;;;;12.53;9.00;;;0.70;99.90;;;;;;5024482;28;20208;-89
2021/01/12 06:55:16;;;;;;;11.93;8.37;;;0.70;99.90;;;;;;5007290;28;20166;-90
2021/01/12 06:57:54;;;;;;;12.37;9.17;;;0.70;99.90;;;;;;5006572;28;20236;-90
2021/01/12 07:00:21;;;;;;;13.00;9.27;;;0.70;99.90;;;;;;5023947;28;20209;-90
2021/01/12 07:02:57;;;;;;;12.93;8.93;;;0.70;99.90;;;;;;5007893;28;20249;-89
2021/01/12 07:05:23;;;;;;;12.17;8.90;;;0.60;99.90;;;;;;5005518;28;20272;-89
2021/01/12 07:07:50;;;;;;;7.43;5.90;;;0.70;99.90;;;;;;5006480;28;20201;-90
2021/01/12 07:10:25;;;;;;;12.73;8.63;;;0.70;99.90;;;;;;5023614;28;20181;-89
2021/01/12 07:12:52;;;;;;;13.33;9.17;;;0.80;99.90;;;;;;5005432;28;20244;-89
2021/01/12 07:15:19;;;;;;;11.37;8.60;;;0.70;99.90;;;;;;5006069;28;20184;-89
2021/01/12 07:17:54;;;;;;;9.93;8.53;;;0.70;99.90;;;;;;5021992;28;20190;-90
2021/01/12 07:20:22;;;;;;;10.27;7.23;;;0.70;99.90;;;;;;5023126;28;20756;-90
2021/01/12 07:22:54;;;;;;;11.60;7.77;;;0.80;99.90;;;;;;5022284;28;20247;-90
2021/01/12 07:25:27;;;;;;;11.10;7.37;;;0.80;99.90;;;;;;5015168;28;20248;-89
2021/01/12 07:28:09;;;;;;;11.27;7.50;;;0.80;99.90;;;;;;5022745;28;20198;-89
2021/01/12 07:30:39;;;;;;;11.63;8.23;;;0.70;99.90;;;;;;5006637;28;20185;-89
2021/01/12 07:33:07;;;;;;;10.70;7.57;;;0.70;99.90;;;;;;5006822;28;20209;-90
2021/01/12 07:35:34;;;;;;;9.33;7.50;;;0.70;99.90;;;;;;5023212;28;20178;-89
2021/01/12 07:38:00;;;;;;;9.23;7.13;;;0.70;99.90;;;;;;5021463;28;20205;-90
2021/01/12 07:40:26;;;;;;;11.27;7.87;;;0.70;99.90;;;;;;4988271;28;20204;-90
2021/01/12 07:42:57;;;;;;;10.90;7.97;;;0.80;99.90;;;;;;5005359;28;20696;-89
2021/01/12 07:45:41;;;;;;;10.77;7.50;;;0.80;99.90;;;;;;5022579;28;20188;-90
2021/01/12 07:48:08;;;;;;;8.87;7.40;;;0.90;99.90;;;;;;4989027;28;20209;-89
2021/01/12 07:50:34;;;;;;;9.30;7.17;;;0.80;99.90;;;;;;5019396;28;20197;-88
2021/01/12 07:53:00;;;;;;;9.87;7.23;;;0.80;99.90;;;;;;5001733;28;20201;-90
2021/01/12 07:55:26;;;;;;;8.77;7.17;;;0.80;99.90;;;;;;5019351;28;20246;-90
2021/01/12 07:57:53;;;;;;;10.77;7.47;;;0.80;99.90;;;;;;5026392;28;20194;-89
2021/01/12 08:00:19;;;;;;;7.17;5.17;;;0.80;99.90;;;;;;5025487;28;20170;-91
2021/01/12 08:02:53;;;;;;;9.53;6.97;;;0.90;99.90;;;;;;5019401;28;20213;-90
2021/01/12 08:05:24;;;;;;;8.73;7.03;;;0.80;99.90;;;;;;5019831;28;20265;-90
2021/01/12 08:08:00;;;;;;;6.30;5.53;;;0.80;99.90;;;;;;5020853;28;20204;-91
2021/01/12 08:10:26;;;;;;;8.40;6.10;;;0.90;99.90;;;;;;5022495;28;20176;-89
2021/01/12 08:13:01;;;;;;;6.80;5.73;;;0.80;99.90;;;;;;5003447;28;20687;-91
2021/01/12 08:15:27;;;;;;;9.63;6.37;;;0.80;99.90;;;;;;5019201;28;20207;-89
2021/01/12 08:17:52;;;;;;;8.70;6.67;;;0.70;99.90;;;;;;5001483;28;20206;-90
2021/01/12 08:20:19;;;;;;;8.53;5.90;;;0.70;99.90;;;;;;5002103;28;20188;-91
2021/01/12 08:23:03;;;;;;;8.97;5.70;;;0.90;99.90;;;;;;5018303;28;20257;-90
2021/01/12 08:25:31;;;;;;;6.13;5.27;;;0.80;99.90;;;;;;5002002;28;20189;-90
2021/01/12 08:27:59;;;;;;;9.00;6.13;;;0.80;99.90;;;;;;5018890;28;20214;-90
2021/01/12 08:30:27;;;;;;;7.20;5.13;;;0.80;99.90;;;;;;5001552;28;20652;-92
2021/01/12 08:33:31;;;;;;;8.87;6.33;;;0.80;99.90;;;;;;5001738;28;20613;-89
2021/01/12 08:36:14;;;;;;;7.83;5.50;;;0.90;99.90;;;;;;4957445;28;20190;-90
2021/01/12 08:38:42;;;;;;;5.97;4.40;;;0.80;99.90;;;;;;5010999;28;20233;-91
2021/01/12 08:41:09;;;;;;;6.83;5.53;;;0.90;99.90;;;;;;5020489;28;20186;-90
2021/01/12 08:43:37;;;;;;;5.80;5.20;;;0.80;99.90;;;;;;5019915;28;20185;-89
2021/01/12 08:46:06;;;;;;;7.20;5.40;;;0.80;99.90;;;;;;4992701;28;20261;-91
2021/01/12 08:48:32;;;;;;;7.50;4.67;;;0.80;99.90;;;;;;5002073;28;20549;-92
2021/01/12 08:50:57;;;;;;;7.50;5.90;;;0.80;99.90;;;;;;5019300;28;20195;-91
2021/01/12 08:53:31;;;;;;;8.27;5.23;;;0.70;99.90;;;;;;5018806;28;20209;-91
2021/01/12 08:56:23;;;;;;;6.77;5.50;;;0.70;99.90;;;;;;5018604;28;20212;-90
2021/01/12 08:58:49;;;;;;;8.70;5.50;;;0.70;99.90;;;;;;4999303;28;20216;-91
2021/01/12 09:01:25;;;;;;;7.67;4.80;;;0.70;99.90;;;;;;5019052;28;20637;-91
2021/01/12 09:04:00;;;;;;;7.83;5.53;;;0.60;99.90;;;;;;5020100;28;20178;-92
2021/01/12 09:06:26;;;;;;;5.90;5.10;;;0.60;99.90;;;;;;5003935;28;20188;-92
2021/01/12 09:08:51;;;;;;;7.40;5.43;;;0.70;99.90;;;;;;5021303;28;20698;-93
2021/01/12 09:11:17;;;;;;;6.17;5.30;;;0.70;99.90;;;;;;5021660;28;20181;-91
2021/01/12 09:13:49;;;;;;;5.77;4.70;;;0.80;99.90;;;;;;4986066;28;20587;-93
2021/01/12 09:16:19;;;;;;;6.27;4.80;;;0.70;99.90;;;;;;5019697;28;20256;-92
2021/01/12 09:18:44;;;;;;;5.97;4.50;;;0.70;99.90;;;;;;5024804;28;20696;-92
2021/01/12 09:21:10;;;;;;;5.10;4.60;;;0.80;99.90;;;;;;5019297;28;20221;-92
2021/01/12 09:23:37;;;;;;;6.37;4.70;;;0.80;99.90;;;;;;5003390;28;20193;-92
2021/01/12 09:26:03;;;;;;;5.60;4.00;;;0.80;99.90;;;;;;4987125;28;20197;-91
2021/01/12 09:28:38;;;;;;;6.53;4.60;;;0.90;99.90;;;;;;5001263;28;20210;-91
2021/01/12 09:31:09;;;;;;;6.23;4.50;;;0.90;99.90;;;;;;5021498;28;20184;-92
2021/01/12 09:33:37;;;;;;;5.93;4.70;;;0.80;99.90;;;;;;4984501;28;20245;-90
2021/01/12 09:36:11;;;;;;;5.80;4.13;;;0.90;99.90;;;;;;4999606;28;20183;-92
2021/01/12 09:38:55;;;;;;;5.27;4.40;;;0.90;99.90;;;;;;5007460;28;20730;-92
2021/01/12 09:41:26;;;;;;;5.57;4.50;;;0.90;99.90;;;;;;5028359;28;20256;-91
2021/01/12 09:43:53;;;;;;;6.53;3.90;;;0.80;99.90;;;;;;5038980;28;20231;-92
2021/01/12 09:46:19;;;;;;;5.50;4.10;;;0.90;99.90;;;;;;5040306;28;20184;-92
2021/01/12 09:48:46;;;;;;;7.03;4.80;;;0.90;99.90;;;;;;5025531;28;20322;-91
2021/01/12 09:51:12;;;;;;;4.40;4.00;;;0.90;99.90;;;;;;5026769;28;20268;-92
2021/01/12 09:53:46;;;;;;;6.50;4.47;;;0.90;99.90;;;;;;5044207;28;20622;-91
2021/01/12 09:56:12;;;;;;;4.90;4.10;;;0.90;99.90;;;;;;5043137;28;20230;-91
2021/01/12 09:58:39;;;;;;;5.23;4.23;;;0.80;99.90;;;;;;5042216;28;20644;-91
2021/01/12 10:01:04;;;;;;;5.13;3.90;;;0.70;99.90;;;;;;5025986;28;20251;-91
2021/01/12 10:03:31;;;;;;;4.80;4.03;;;0.80;99.90;;;;;;5030496;28;20196;-92
2021/01/12 10:05:57;;;;;;;4.53;3.80;;;0.80;99.90;;;;;;5028157;28;20269;-93
2021/01/12 10:08:25;;;;;;;4.87;3.70;;;0.80;99.90;;;;;;5024594;28;20232;-92
2021/01/12 10:10:52;;;;;;;3.33;3.03;;;0.80;99.90;;;;;;5024500;28;20189;-93
2021/01/12 10:13:18;;;;;;;5.00;3.87;;;0.80;99.90;;;;;;5025143;28;20201;-92
2021/01/12 10:15:44;;;;;;;5.73;3.60;;;0.80;99.90;;;;;;5024022;28;20182;-93
2021/01/12 10:18:10;;;;;;;4.07;3.30;;;0.70;99.90;;;;;;5024135;28;20196;-91
2021/01/12 10:20:35;;;;;;;4.10;3.70;;;0.80;99.90;;;;;;5022718;28;20178;-92
2021/01/12 10:23:01;;;;;;;3.57;3.23;;;0.80;99.90;;;;;;5026685;28;20236;-92
2021/01/12 10:25:28;;;;;;;3.90;3.50;;;0.80;99.90;;;;;;5043146;28;20663;-92
2021/01/12 10:27:55;;;;;;;4.03;3.50;;;0.80;99.90;;;;;;5027618;28;20228;-92
2021/01/12 10:30:21;;;;;;;3.87;3.17;;;0.80;99.90;;;;;;5037879;28;20270;-92
2021/01/12 10:32:49;;;;;;;3.17;2.87;;;0.90;99.90;;;;;;5048026;28;20211;-93
2021/01/12 10:35:16;;;;;;;3.60;3.13;;;0.90;99.90;;;;;;5036458;28;20186;-92
2021/01/12 10:37:45;;;;;;;4.60;2.93;;;0.90;99.90;;;;;;5024856;28;20189;-93
2021/01/12 10:40:12;;;;;;;4.80;3.30;;;0.90;99.90;;;;;;5043919;28;20185;-91
2021/01/12 10:42:42;;;;;;;3.83;3.43;;;0.90;99.90;;;;;;5032087;28;20544;-92
2021/01/12 10:45:09;;;;;;;3.67;3.13;;;0.90;99.90;;;;;;5027777;28;20250;-92
2021/01/12 10:47:35;;;;;;;3.70;3.10;;;0.90;99.90;;;;;;5011107;28;20190;-92
2021/01/12 10:50:02;;;;;;;4.93;3.47;;;1.00;99.90;;;;;;5027203;28;20209;-91
2021/01/12 10:52:32;;;;;;;3.50;3.10;;;0.90;99.90;;;;;;5029767;28;20185;-93
2021/01/12 10:54:58;;;;;;;3.23;2.93;;;1.00;99.90;;;;;;5025862;28;20201;-91
2021/01/12 10:57:23;;;;;;;4.27;3.20;;;1.00;99.90;;;;;;5025410;28;20236;-92
2021/01/12 10:59:49;;;;;;;3.37;3.00;;;1.00;99.90;;;;;;5023188;28;20201;-91
2021/01/12 11:02:15;;;;;;;4.40;3.37;;;1.00;99.90;;;;;;5026557;28;20189;-91
2021/01/12 11:04:40;;;;;;;3.63;2.60;;;1.00;99.90;;;;;;5024873;28;20221;-91
2021/01/12 11:07:06;;;;;;;3.70;3.17;;;0.90;99.90;;;;;;5024833;28;20189;-91
2021/01/12 11:09:35;;;;;;;3.33;3.03;;;0.90;99.90;;;;;;5025116;28;20629;-91
2021/01/12 11:12:04;;;;;;;3.83;3.30;;;0.90;99.90;;;;;;5025605;28;20178;-90
2021/01/12 11:14:30;;;;;;;3.77;3.30;;;0.90;99.90;;;;;;5004747;28;20671;-91
2021/01/12 11:16:56;;;;;;;3.43;3.13;;;1.00;99.90;;;;;;5020989;28;20193;-90
2021/01/12 11:19:22;;;;;;;3.60;3.03;;;1.00;99.90;;;;;;5003766;28;20276;-93
2021/01/12 11:21:49;;;;;;;2.93;2.63;;;1.00;99.90;;;;;;5020802;28;20253;-90
2021/01/12 11:24:19;;;;;;;3.73;2.93;;;1.10;99.90;;;;;;5004112;28;20299;-92
2021/01/12 11:26:46;;;;;;;3.57;3.27;;;1.10;99.90;;;;;;5021716;28;20197;-90
2021/01/12 11:29:11;;;;;;;3.07;2.73;;;1.10;99.90;;;;;;5021081;28;20292;-90
2021/01/12 11:31:39;;;;;;;3.60;3.00;;;1.10;99.90;;;;;;5003200;28;20213;-90
2021/01/12 11:34:05;;;;;;;4.03;3.10;;;1.10;99.90;;;;;;5020528;28;20218;-92
2021/01/12 11:36:37;;;;;;;3.77;3.07;;;1.20;99.90;;;;;;5021572;28;20229;-90
2021/01/12 11:39:03;;;;;;;3.10;2.80;;;1.20;99.90;;;;;;5005562;28;20295;-91
2021/01/12 11:41:29;;;;;;;4.00;2.90;;;1.20;99.90;;;;;;5020856;28;20201;-90
2021/01/12 11:43:55;;;;;;;3.17;2.87;;;1.10;99.90;;;;;;5020987;28;20213;-92
2021/01/12 11:46:29;;;;;;;3.37;2.50;;;1.20;99.90;;;;;;5005589;28;20185;-91
2021/01/12 11:48:56;;;;;;;3.17;2.53;;;1.20;99.90;;;;;;5011100;28;20209;-91
2021/01/12 11:51:22;;;;;;;2.60;2.40;;;1.20;99.90;;;;;;5008721;28;20200;-91
2021/01/12 11:53:51;;;;;;;2.73;2.50;;;1.10;99.90;;;;;;5039730;28;20276;-90
2021/01/12 11:56:18;;;;;;;2.40;2.20;;;1.20;99.90;;;;;;5014497;28;20192;-89
2021/01/12 11:58:43;;;;;;;2.70;2.40;;;1.10;99.90;;;;;;5021373;28;20241;-89
2021/01/12 12:01:09;;;;;;;2.47;2.13;;;1.20;99.90;;;;;;5021365;28;20645;-89
2021/01/12 12:03:35;;;;;;;2.50;2.30;;;1.20;99.90;;;;;;5005493;28;20247;-89
2021/01/12 12:06:00;;;;;;;3.20;2.73;;;1.20;99.90;;;;;;5022337;28;20182;-89
2021/01/12 12:08:26;;;;;;;3.33;2.53;;;1.20;99.90;;;;;;5015895;28;20210;-89
2021/01/12 12:10:52;;;;;;;4.17;2.70;;;1.20;99.90;;;;;;5016774;28;20190;-89
2021/01/12 12:13:17;;;;;;;2.23;2.03;;;1.20;99.90;;;;;;5018486;28;20219;-90
2021/01/12 12:15:47;;;;;;;2.70;2.43;;;1.20;99.90;;;;;;5022776;28;20193;-90
2021/01/12 12:18:13;;;;;;;2.67;2.40;;;1.30;99.90;;;;;;5017556;28;20201;-89
2021/01/12 12:20:39;;;;;;;2.30;2.10;;;1.30;99.90;;;;;;5020359;28;20185;-89
2021/01/12 12:23:04;;;;;;;2.50;2.30;;;1.20;99.90;;;;;;5017874;28;20193;-89
2021/01/12 12:25:30;;;;;;;3.07;2.30;;;1.20;99.90;;;;;;5019306;28;20192;-89
2021/01/12 12:27:56;;;;;;;3.53;2.10;;;1.30;99.90;;;;;;5020085;28;20205;-90
2021/01/12 12:30:22;;;;;;;2.17;1.97;;;1.20;99.90;;;;;;5018800;28;20270;-89
2021/01/12 12:32:47;;;;;;;2.17;1.90;;;1.20;99.90;;;;;;5019670;28;20221;-89
2021/01/12 12:35:13;;;;;;;2.73;2.00;;;1.20;99.90;;;;;;5001626;28;20304;-89
2021/01/12 12:37:39;;;;;;;2.00;1.80;;;1.20;99.90;;;;;;5018740;28;20657;-88
2021/01/12 12:40:06;;;;;;;1.80;1.70;;;1.20;99.90;;;;;;5001044;28;20193;-89
2021/01/12 12:42:32;;;;;;;2.33;1.77;;;1.30;99.90;;;;;;4984310;28;20190;-89
2021/01/12 12:44:57;;;;;;;2.47;2.00;;;1.30;99.90;;;;;;5017998;28;20366;-89
2021/01/12 12:47:23;;;;;;;1.90;1.80;;;1.30;99.90;;;;;;4999707;28;20655;-90
2021/01/12 12:49:50;;;;;;;1.40;1.30;;;1.30;99.90;;;;;;4999871;28;20692;-91
2021/01/12 12:52:16;;;;;;;1.97;1.60;;;1.40;99.90;;;;;;4983739;28;20178;-91